sensor_id;sensor_type;location;lat;lon;timestamp;P1;durP1;ratioP1;P2;durP2;ratioP2
3311;SDS011;1668;49.648;8.570;2022-08-19T00:01:55;18.30;;;13.30;;
3311;SDS011;1668;49.648;8.570;2022-08-19T00:04:27;17.07;;;13.00;;
3311;SDS011;1668;49.648;8.570;2022-08-19T00:07:01;16.47;;;13.63;;
3311;SDS011;1668;49.648;8.570;2022-08-19T00:09:28;15.97;;;13.80;;
3311;SDS011;1668;49.648;8.570;2022-08-19T00:11:55;14.80;;;12.80;;
3311;SDS011;1668;49.648;8.570;2022-08-19T00:14:24;17.40;;;13.90;;
3311;SDS011;1668;49.648;8.570;2022-08-19T00:16:52;16.20;;;12.77;;
3311;SDS011;1668;49.648;8.570;2022-08-19T00:19:19;16.10;;;13.30;;
3311;SDS011;1668;49.648;8.570;2022-08-19T00:21:48;16.43;;;14.03;;
3311;SDS011;1668;49.648;8.570;2022-08-19T00:24:15;14.47;;;12.60;;
3311;SDS011;1668;49.648;8.570;2022-08-19T00:26:43;17.93;;;13.17;;
3311;SDS011;1668;49.648;8.570;2022-08-19T00:29:11;17.20;;;13.83;;
3311;SDS011;1668;49.648;8.570;2022-08-19T00:31:40;16.17;;;14.03;;
3311;SDS011;1668;49.648;8.570;2022-08-19T00:34:08;16.20;;;13.63;;
3311;SDS011;1668;49.648;8.570;2022-08-19T00:36:35;20.93;;;13.80;;
3311;SDS011;1668;49.648;8.570;2022-08-19T00:39:04;15.83;;;13.87;;
3311;SDS011;1668;49.648;8.570;2022-08-19T00:41:30;16.20;;;14.00;;
3311;SDS011;1668;49.648;8.570;2022-08-19T00:44:02;14.73;;;12.50;;
3311;SDS011;1668;49.648;8.570;2022-08-19T00:46:31;18.10;;;14.70;;
3311;SDS011;1668;49.648;8.570;2022-08-19T00:49:00;18.70;;;14.77;;
3311;SDS011;1668;49.648;8.570;2022-08-19T00:51:32;22.80;;;15.80;;
3311;SDS011;1668;49.648;8.570;2022-08-19T00:54:00;19.80;;;15.27;;
3311;SDS011;1668;49.648;8.570;2022-08-19T00:56:30;19.20;;;15.10;;
3311;SDS011;1668;49.648;8.570;2022-08-19T00:58:57;17.90;;;15.00;;
3311;SDS011;1668;49.648;8.570;2022-08-19T01:01:26;19.23;;;15.97;;
3311;SDS011;1668;49.648;8.570;2022-08-19T01:03:53;16.53;;;14.27;;
3311;SDS011;1668;49.648;8.570;2022-08-19T01:06:20;19.37;;;15.87;;
3311;SDS011;1668;49.648;8.570;2022-08-19T01:08:47;19.03;;;15.40;;
3311;SDS011;1668;49.648;8.570;2022-08-19T01:11:14;16.93;;;14.57;;
3311;SDS011;1668;49.648;8.570;2022-08-19T01:13:43;17.60;;;15.10;;
3311;SDS011;1668;49.648;8.570;2022-08-19T01:16:12;21.93;;;15.83;;
3311;SDS011;1668;49.648;8.570;2022-08-19T01:18:41;19.13;;;16.67;;
3311;SDS011;1668;49.648;8.570;2022-08-19T01:21:09;19.50;;;15.43;;
3311;SDS011;1668;49.648;8.570;2022-08-19T01:23:44;17.27;;;14.43;;
3311;SDS011;1668;49.648;8.570;2022-08-19T01:26:12;18.20;;;16.10;;
3311;SDS011;1668;49.648;8.570;2022-08-19T01:28:42;17.33;;;15.43;;
3311;SDS011;1668;49.648;8.570;2022-08-19T01:31:12;20.87;;;16.10;;
3311;SDS011;1668;49.648;8.570;2022-08-19T01:33:41;20.03;;;16.60;;
3311;SDS011;1668;49.648;8.570;2022-08-19T01:36:09;22.60;;;16.27;;
3311;SDS011;1668;49.648;8.570;2022-08-19T01:38:40;16.60;;;14.70;;
3311;SDS011;1668;49.648;8.570;2022-08-19T01:41:10;20.80;;;16.40;;
3311;SDS011;1668;49.648;8.570;2022-08-19T01:43:37;20.00;;;15.80;;
3311;SDS011;1668;49.648;8.570;2022-08-19T01:46:05;19.97;;;16.60;;
3311;SDS011;1668;49.648;8.570;2022-08-19T01:48:33;16.90;;;15.10;;
3311;SDS011;1668;49.648;8.570;2022-08-19T01:51:01;16.57;;;14.77;;
3311;SDS011;1668;49.648;8.570;2022-08-19T01:53:29;17.13;;;15.30;;
3311;SDS011;1668;49.648;8.570;2022-08-19T01:55:56;16.87;;;14.70;;
3311;SDS011;1668;49.648;8.570;2022-08-19T01:58:26;18.40;;;14.90;;
3311;SDS011;1668;49.648;8.570;2022-08-19T02:00:56;19.33;;;15.80;;
3311;SDS011;1668;49.648;8.570;2022-08-19T02:03:24;16.57;;;14.77;;
3311;SDS011;1668;49.648;8.570;2022-08-19T02:05:54;18.67;;;15.63;;
3311;SDS011;1668;49.648;8.570;2022-08-19T02:08:22;18.97;;;14.83;;
3311;SDS011;1668;49.648;8.570;2022-08-19T02:10:49;19.30;;;15.80;;
3311;SDS011;1668;49.648;8.570;2022-08-19T02:13:16;20.20;;;15.30;;
3311;SDS011;1668;49.648;8.570;2022-08-19T02:15:45;19.20;;;15.83;;
3311;SDS011;1668;49.648;8.570;2022-08-19T02:18:12;18.90;;;15.40;;
3311;SDS011;1668;49.648;8.570;2022-08-19T02:20:39;18.20;;;15.57;;
3311;SDS011;1668;49.648;8.570;2022-08-19T02:23:09;18.70;;;14.60;;
3311;SDS011;1668;49.648;8.570;2022-08-19T02:25:37;18.90;;;15.77;;
3311;SDS011;1668;49.648;8.570;2022-08-19T02:28:05;18.53;;;15.63;;
3311;SDS011;1668;49.648;8.570;2022-08-19T02:30:32;19.03;;;16.27;;
3311;SDS011;1668;49.648;8.570;2022-08-19T02:33:01;23.17;;;16.00;;
3311;SDS011;1668;49.648;8.570;2022-08-19T02:35:27;18.00;;;15.30;;
3311;SDS011;1668;49.648;8.570;2022-08-19T02:37:54;18.40;;;15.50;;
3311;SDS011;1668;49.648;8.570;2022-08-19T02:40:47;18.93;;;14.57;;
3311;SDS011;1668;49.648;8.570;2022-08-19T02:43:16;17.87;;;14.40;;
3311;SDS011;1668;49.648;8.570;2022-08-19T02:45:45;23.30;;;16.20;;
3311;SDS011;1668;49.648;8.570;2022-08-19T02:48:14;16.47;;;14.03;;
3311;SDS011;1668;49.648;8.570;2022-08-19T02:50:42;18.63;;;15.27;;
3311;SDS011;1668;49.648;8.570;2022-08-19T02:53:10;18.40;;;15.27;;
3311;SDS011;1668;49.648;8.570;2022-08-19T02:55:42;17.27;;;15.40;;
3311;SDS011;1668;49.648;8.570;2022-08-19T02:58:11;18.03;;;15.50;;
3311;SDS011;1668;49.648;8.570;2022-08-19T03:00:43;20.27;;;15.83;;
3311;SDS011;1668;49.648;8.570;2022-08-19T03:03:11;19.43;;;16.03;;
3311;SDS011;1668;49.648;8.570;2022-08-19T03:05:39;19.37;;;15.93;;
3311;SDS011;1668;49.648;8.570;2022-08-19T03:08:07;20.70;;;15.87;;
3311;SDS011;1668;49.648;8.570;2022-08-19T03:10:41;17.23;;;15.17;;
3311;SDS011;1668;49.648;8.570;2022-08-19T03:13:10;18.73;;;16.10;;
3311;SDS011;1668;49.648;8.570;2022-08-19T03:15:41;19.80;;;16.20;;
3311;SDS011;1668;49.648;8.570;2022-08-19T03:18:09;18.70;;;16.20;;
3311;SDS011;1668;49.648;8.570;2022-08-19T03:20:41;23.00;;;17.00;;
3311;SDS011;1668;49.648;8.570;2022-08-19T03:23:09;19.17;;;15.97;;
3311;SDS011;1668;49.648;8.570;2022-08-19T03:25:38;19.90;;;16.70;;
3311;SDS011;1668;49.648;8.570;2022-08-19T03:28:08;20.87;;;16.50;;
3311;SDS011;1668;49.648;8.570;2022-08-19T03:30:35;24.47;;;15.43;;
3311;SDS011;1668;49.648;8.570;2022-08-19T03:33:02;19.90;;;16.57;;
3311;SDS011;1668;49.648;8.570;2022-08-19T03:35:29;19.60;;;16.40;;
3311;SDS011;1668;49.648;8.570;2022-08-19T03:37:59;19.00;;;16.43;;
3311;SDS011;1668;49.648;8.570;2022-08-19T03:40:26;18.63;;;16.27;;
3311;SDS011;1668;49.648;8.570;2022-08-19T03:42:54;17.63;;;15.70;;
3311;SDS011;1668;49.648;8.570;2022-08-19T03:45:21;23.17;;;17.60;;
3311;SDS011;1668;49.648;8.570;2022-08-19T03:47:49;20.63;;;18.30;;
3311;SDS011;1668;49.648;8.570;2022-08-19T03:50:16;21.10;;;17.27;;
3311;SDS011;1668;49.648;8.570;2022-08-19T03:52:47;20.20;;;17.17;;
3311;SDS011;1668;49.648;8.570;2022-08-19T03:55:16;20.57;;;17.80;;
3311;SDS011;1668;49.648;8.570;2022-08-19T03:57:44;21.50;;;17.27;;
3311;SDS011;1668;49.648;8.570;2022-08-19T04:00:13;20.27;;;17.50;;
3311;SDS011;1668;49.648;8.570;2022-08-19T04:02:40;22.60;;;18.53;;
3311;SDS011;1668;49.648;8.570;2022-08-19T04:05:08;19.63;;;16.40;;
3311;SDS011;1668;49.648;8.570;2022-08-19T04:07:35;20.50;;;16.90;;
3311;SDS011;1668;49.648;8.570;2022-08-19T04:10:02;22.00;;;17.33;;
3311;SDS011;1668;49.648;8.570;2022-08-19T04:12:31;18.77;;;16.10;;
3311;SDS011;1668;49.648;8.570;2022-08-19T04:14:58;20.13;;;17.07;;
3311;SDS011;1668;49.648;8.570;2022-08-19T04:17:25;21.50;;;17.80;;
3311;SDS011;1668;49.648;8.570;2022-08-19T04:19:52;20.13;;;17.20;;
3311;SDS011;1668;49.648;8.570;2022-08-19T04:22:19;22.70;;;18.50;;
3311;SDS011;1668;49.648;8.570;2022-08-19T04:24:46;25.20;;;17.70;;
3311;SDS011;1668;49.648;8.570;2022-08-19T04:27:13;26.97;;;17.17;;
3311;SDS011;1668;49.648;8.570;2022-08-19T04:29:42;18.30;;;15.57;;
3311;SDS011;1668;49.648;8.570;2022-08-19T04:32:08;20.50;;;17.53;;
3311;SDS011;1668;49.648;8.570;2022-08-19T04:34:35;22.70;;;17.03;;
3311;SDS011;1668;49.648;8.570;2022-08-19T04:37:04;21.37;;;17.40;;
3311;SDS011;1668;49.648;8.570;2022-08-19T04:39:37;19.53;;;16.83;;
3311;SDS011;1668;49.648;8.570;2022-08-19T04:42:23;23.60;;;18.33;;
3311;SDS011;1668;49.648;8.570;2022-08-19T04:45:07;19.93;;;17.07;;
3311;SDS011;1668;49.648;8.570;2022-08-19T04:47:36;19.60;;;16.30;;
3311;SDS011;1668;49.648;8.570;2022-08-19T04:50:04;21.60;;;18.23;;
3311;SDS011;1668;49.648;8.570;2022-08-19T04:52:31;23.00;;;18.70;;
3311;SDS011;1668;49.648;8.570;2022-08-19T04:54:58;19.40;;;16.50;;
3311;SDS011;1668;49.648;8.570;2022-08-19T04:57:25;20.70;;;16.90;;
3311;SDS011;1668;49.648;8.570;2022-08-19T04:59:53;19.63;;;17.00;;
3311;SDS011;1668;49.648;8.570;2022-08-19T05:02:22;20.57;;;17.20;;
3311;SDS011;1668;49.648;8.570;2022-08-19T05:04:50;20.43;;;17.77;;
3311;SDS011;1668;49.648;8.570;2022-08-19T05:07:19;21.93;;;17.33;;
3311;SDS011;1668;49.648;8.570;2022-08-19T05:09:46;25.93;;;18.20;;
3311;SDS011;1668;49.648;8.570;2022-08-19T05:12:13;19.63;;;17.00;;
3311;SDS011;1668;49.648;8.570;2022-08-19T05:14:40;19.33;;;17.30;;
3311;SDS011;1668;49.648;8.570;2022-08-19T05:17:07;20.80;;;17.20;;
3311;SDS011;1668;49.648;8.570;2022-08-19T05:19:35;20.50;;;17.33;;
3311;SDS011;1668;49.648;8.570;2022-08-19T05:22:20;23.57;;;17.33;;
3311;SDS011;1668;49.648;8.570;2022-08-19T05:25:01;20.53;;;16.43;;
3311;SDS011;1668;49.648;8.570;2022-08-19T05:27:30;20.20;;;17.10;;
3311;SDS011;1668;49.648;8.570;2022-08-19T05:29:57;20.47;;;16.43;;
3311;SDS011;1668;49.648;8.570;2022-08-19T05:32:24;20.37;;;17.43;;
3311;SDS011;1668;49.648;8.570;2022-08-19T05:34:53;23.00;;;17.50;;
3311;SDS011;1668;49.648;8.570;2022-08-19T05:37:20;21.83;;;17.23;;
3311;SDS011;1668;49.648;8.570;2022-08-19T05:39:47;18.87;;;16.33;;
3311;SDS011;1668;49.648;8.570;2022-08-19T05:42:15;21.50;;;17.60;;
3311;SDS011;1668;49.648;8.570;2022-08-19T05:44:43;21.47;;;18.27;;
3311;SDS011;1668;49.648;8.570;2022-08-19T05:47:12;24.23;;;17.67;;
3311;SDS011;1668;49.648;8.570;2022-08-19T05:49:40;23.33;;;17.40;;
3311;SDS011;1668;49.648;8.570;2022-08-19T05:52:10;23.03;;;17.87;;
3311;SDS011;1668;49.648;8.570;2022-08-19T05:54:39;20.07;;;17.37;;
3311;SDS011;1668;49.648;8.570;2022-08-19T05:57:07;22.10;;;18.20;;
3311;SDS011;1668;49.648;8.570;2022-08-19T05:59:35;21.07;;;17.37;;
3311;SDS011;1668;49.648;8.570;2022-08-19T06:02:02;21.90;;;16.43;;
3311;SDS011;1668;49.648;8.570;2022-08-19T06:04:31;22.10;;;17.40;;
3311;SDS011;1668;49.648;8.570;2022-08-19T06:06:58;22.50;;;16.83;;
3311;SDS011;1668;49.648;8.570;2022-08-19T06:09:28;21.17;;;17.00;;
3311;SDS011;1668;49.648;8.570;2022-08-19T06:11:56;22.20;;;17.13;;
3311;SDS011;1668;49.648;8.570;2022-08-19T06:14:26;18.43;;;15.90;;
3311;SDS011;1668;49.648;8.570;2022-08-19T06:16:54;22.30;;;17.20;;
3311;SDS011;1668;49.648;8.570;2022-08-19T06:19:22;20.20;;;16.20;;
3311;SDS011;1668;49.648;8.570;2022-08-19T06:21:50;19.53;;;16.80;;
3311;SDS011;1668;49.648;8.570;2022-08-19T06:24:19;18.83;;;15.40;;
3311;SDS011;1668;49.648;8.570;2022-08-19T06:26:50;21.10;;;17.30;;
3311;SDS011;1668;49.648;8.570;2022-08-19T06:29:19;17.37;;;14.80;;
3311;SDS011;1668;49.648;8.570;2022-08-19T06:31:49;17.73;;;15.27;;
3311;SDS011;1668;49.648;8.570;2022-08-19T06:34:18;19.80;;;15.30;;
3311;SDS011;1668;49.648;8.570;2022-08-19T06:36:46;20.53;;;15.30;;
3311;SDS011;1668;49.648;8.570;2022-08-19T06:39:16;17.40;;;15.47;;
3311;SDS011;1668;49.648;8.570;2022-08-19T06:41:46;18.43;;;15.90;;
3311;SDS011;1668;49.648;8.570;2022-08-19T06:44:16;17.50;;;14.83;;
3311;SDS011;1668;49.648;8.570;2022-08-19T06:46:44;20.07;;;17.03;;
3311;SDS011;1668;49.648;8.570;2022-08-19T06:49:11;17.43;;;14.27;;
3311;SDS011;1668;49.648;8.570;2022-08-19T06:51:40;18.33;;;15.20;;
3311;SDS011;1668;49.648;8.570;2022-08-19T06:54:08;17.00;;;14.63;;
3311;SDS011;1668;49.648;8.570;2022-08-19T06:56:36;19.90;;;14.37;;
3311;SDS011;1668;49.648;8.570;2022-08-19T06:59:04;17.50;;;13.73;;
3311;SDS011;1668;49.648;8.570;2022-08-19T07:01:35;16.70;;;14.83;;
3311;SDS011;1668;49.648;8.570;2022-08-19T07:04:03;17.90;;;15.57;;
3311;SDS011;1668;49.648;8.570;2022-08-19T07:06:31;17.07;;;15.27;;
3311;SDS011;1668;49.648;8.570;2022-08-19T07:08:58;16.40;;;14.63;;
3311;SDS011;1668;49.648;8.570;2022-08-19T07:11:25;22.63;;;14.87;;
3311;SDS011;1668;49.648;8.570;2022-08-19T07:13:52;16.27;;;14.37;;
3311;SDS011;1668;49.648;8.570;2022-08-19T07:16:20;19.60;;;14.37;;
3311;SDS011;1668;49.648;8.570;2022-08-19T07:18:49;17.27;;;15.00;;
3311;SDS011;1668;49.648;8.570;2022-08-19T07:21:17;18.40;;;14.40;;
3311;SDS011;1668;49.648;8.570;2022-08-19T07:23:46;20.63;;;14.80;;
3311;SDS011;1668;49.648;8.570;2022-08-19T07:26:15;16.93;;;14.70;;
3311;SDS011;1668;49.648;8.570;2022-08-19T07:28:44;15.37;;;13.00;;
3311;SDS011;1668;49.648;8.570;2022-08-19T07:31:12;15.27;;;13.67;;
3311;SDS011;1668;49.648;8.570;2022-08-19T07:33:40;19.03;;;14.90;;
3311;SDS011;1668;49.648;8.570;2022-08-19T07:36:10;15.27;;;13.37;;
3311;SDS011;1668;49.648;8.570;2022-08-19T07:38:40;18.20;;;14.50;;
3311;SDS011;1668;49.648;8.570;2022-08-19T07:41:09;14.47;;;12.90;;
3311;SDS011;1668;49.648;8.570;2022-08-19T07:43:37;14.57;;;12.17;;
3311;SDS011;1668;49.648;8.570;2022-08-19T07:46:05;14.17;;;12.77;;
3311;SDS011;1668;49.648;8.570;2022-08-19T07:48:34;14.63;;;12.93;;
3311;SDS011;1668;49.648;8.570;2022-08-19T07:51:02;15.67;;;13.27;;
3311;SDS011;1668;49.648;8.570;2022-08-19T07:53:32;13.10;;;11.53;;
3311;SDS011;1668;49.648;8.570;2022-08-19T07:55:59;14.70;;;11.93;;
3311;SDS011;1668;49.648;8.570;2022-08-19T07:58:29;13.57;;;11.10;;
3311;SDS011;1668;49.648;8.570;2022-08-19T08:00:57;13.53;;;11.13;;
3311;SDS011;1668;49.648;8.570;2022-08-19T08:03:25;12.50;;;10.30;;
3311;SDS011;1668;49.648;8.570;2022-08-19T08:06:07;13.33;;;9.63;;
3311;SDS011;1668;49.648;8.570;2022-08-19T08:08:53;10.77;;;9.27;;
3311;SDS011;1668;49.648;8.570;2022-08-19T08:11:34;12.23;;;9.90;;
3311;SDS011;1668;49.648;8.570;2022-08-19T08:14:01;12.67;;;9.53;;
3311;SDS011;1668;49.648;8.570;2022-08-19T08:16:30;10.77;;;9.60;;
3311;SDS011;1668;49.648;8.570;2022-08-19T08:18:59;10.83;;;9.63;;
3311;SDS011;1668;49.648;8.570;2022-08-19T08:21:26;12.50;;;10.67;;
3311;SDS011;1668;49.648;8.570;2022-08-19T08:23:55;9.80;;;8.53;;
3311;SDS011;1668;49.648;8.570;2022-08-19T08:26:22;10.53;;;8.77;;
3311;SDS011;1668;49.648;8.570;2022-08-19T08:28:50;12.50;;;8.23;;
3311;SDS011;1668;49.648;8.570;2022-08-19T08:31:17;12.53;;;8.00;;
3311;SDS011;1668;49.648;8.570;2022-08-19T08:33:44;7.47;;;6.77;;
3311;SDS011;1668;49.648;8.570;2022-08-19T08:36:12;7.77;;;6.97;;
3311;SDS011;1668;49.648;8.570;2022-08-19T08:38:40;10.70;;;7.07;;
3311;SDS011;1668;49.648;8.570;2022-08-19T08:41:13;9.20;;;6.90;;
3311;SDS011;1668;49.648;8.570;2022-08-19T08:43:49;7.63;;;6.30;;
3311;SDS011;1668;49.648;8.570;2022-08-19T08:46:19;7.70;;;6.57;;
3311;SDS011;1668;49.648;8.570;2022-08-19T08:48:53;9.40;;;6.90;;
3311;SDS011;1668;49.648;8.570;2022-08-19T08:51:26;9.33;;;7.00;;
3311;SDS011;1668;49.648;8.570;2022-08-19T08:53:58;6.90;;;5.87;;
3311;SDS011;1668;49.648;8.570;2022-08-19T08:56:29;8.53;;;6.97;;
3311;SDS011;1668;49.648;8.570;2022-08-19T08:58:57;6.53;;;5.70;;
3311;SDS011;1668;49.648;8.570;2022-08-19T09:01:28;8.10;;;6.60;;
3311;SDS011;1668;49.648;8.570;2022-08-19T09:03:55;7.47;;;6.67;;
3311;SDS011;1668;49.648;8.570;2022-08-19T09:06:24;8.10;;;6.73;;
3311;SDS011;1668;49.648;8.570;2022-08-19T09:08:59;8.63;;;7.07;;
3311;SDS011;1668;49.648;8.570;2022-08-19T09:11:39;9.20;;;7.00;;
3311;SDS011;1668;49.648;8.570;2022-08-19T09:14:15;8.87;;;6.33;;
3311;SDS011;1668;49.648;8.570;2022-08-19T09:16:54;7.00;;;5.77;;
3311;SDS011;1668;49.648;8.570;2022-08-19T09:19:22;10.77;;;6.43;;
3311;SDS011;1668;49.648;8.570;2022-08-19T09:21:49;7.13;;;6.00;;
3311;SDS011;1668;49.648;8.570;2022-08-19T09:24:16;6.50;;;5.87;;
3311;SDS011;1668;49.648;8.570;2022-08-19T09:26:44;12.07;;;6.00;;
3311;SDS011;1668;49.648;8.570;2022-08-19T09:29:11;5.93;;;5.33;;
3311;SDS011;1668;49.648;8.570;2022-08-19T09:31:38;6.70;;;5.67;;
3311;SDS011;1668;49.648;8.570;2022-08-19T09:34:06;7.47;;;6.23;;
3311;SDS011;1668;49.648;8.570;2022-08-19T09:36:33;7.50;;;5.80;;
3311;SDS011;1668;49.648;8.570;2022-08-19T09:39:01;8.73;;;5.33;;
3311;SDS011;1668;49.648;8.570;2022-08-19T09:41:28;6.47;;;5.30;;
3311;SDS011;1668;49.648;8.570;2022-08-19T09:43:57;5.97;;;5.30;;
3311;SDS011;1668;49.648;8.570;2022-08-19T09:46:25;5.80;;;5.20;;
3311;SDS011;1668;49.648;8.570;2022-08-19T09:48:58;7.07;;;5.50;;
3311;SDS011;1668;49.648;8.570;2022-08-19T09:51:26;7.87;;;5.80;;
3311;SDS011;1668;49.648;8.570;2022-08-19T09:53:54;6.10;;;5.37;;
3311;SDS011;1668;49.648;8.570;2022-08-19T09:56:26;6.60;;;5.90;;
3311;SDS011;1668;49.648;8.570;2022-08-19T09:58:53;8.30;;;5.73;;
3311;SDS011;1668;49.648;8.570;2022-08-19T10:01:22;6.80;;;5.27;;
3311;SDS011;1668;49.648;8.570;2022-08-19T10:03:51;6.60;;;5.17;;
3311;SDS011;1668;49.648;8.570;2022-08-19T10:06:20;6.77;;;5.10;;
3311;SDS011;1668;49.648;8.570;2022-08-19T10:08:48;7.97;;;5.90;;
3311;SDS011;1668;49.648;8.570;2022-08-19T10:11:16;5.87;;;5.27;;
3311;SDS011;1668;49.648;8.570;2022-08-19T10:13:43;7.47;;;5.70;;
3311;SDS011;1668;49.648;8.570;2022-08-19T10:16:11;7.57;;;6.43;;
3311;SDS011;1668;49.648;8.570;2022-08-19T10:18:42;9.70;;;6.73;;
3311;SDS011;1668;49.648;8.570;2022-08-19T10:21:10;8.70;;;6.30;;
3311;SDS011;1668;49.648;8.570;2022-08-19T10:23:40;8.47;;;6.50;;
3311;SDS011;1668;49.648;8.570;2022-08-19T10:26:10;6.53;;;5.93;;
3311;SDS011;1668;49.648;8.570;2022-08-19T10:28:38;6.30;;;5.70;;
3311;SDS011;1668;49.648;8.570;2022-08-19T10:31:06;10.10;;;6.70;;
3311;SDS011;1668;49.648;8.570;2022-08-19T10:33:34;8.13;;;7.33;;
3311;SDS011;1668;49.648;8.570;2022-08-19T10:36:05;6.77;;;6.17;;
3311;SDS011;1668;49.648;8.570;2022-08-19T10:38:34;7.30;;;6.60;;
3311;SDS011;1668;49.648;8.570;2022-08-19T10:41:09;6.93;;;6.23;;
3311;SDS011;1668;49.648;8.570;2022-08-19T10:43:37;13.50;;;7.43;;
3311;SDS011;1668;49.648;8.570;2022-08-19T10:46:05;7.20;;;6.50;;
3311;SDS011;1668;49.648;8.570;2022-08-19T10:48:32;7.60;;;6.70;;
3311;SDS011;1668;49.648;8.570;2022-08-19T10:50:59;7.60;;;6.90;;
3311;SDS011;1668;49.648;8.570;2022-08-19T10:53:45;10.67;;;8.50;;
3311;SDS011;1668;49.648;8.570;2022-08-19T10:56:12;8.90;;;7.70;;
3311;SDS011;1668;49.648;8.570;2022-08-19T10:58:57;12.50;;;8.60;;
3311;SDS011;1668;49.648;8.570;2022-08-19T11:01:25;10.37;;;7.60;;
3311;SDS011;1668;49.648;8.570;2022-08-19T11:03:52;9.23;;;8.33;;
3311;SDS011;1668;49.648;8.570;2022-08-19T11:06:19;12.93;;;8.00;;
3311;SDS011;1668;49.648;8.570;2022-08-19T11:08:47;8.90;;;8.00;;
3311;SDS011;1668;49.648;8.570;2022-08-19T11:11:14;11.03;;;8.00;;
3311;SDS011;1668;49.648;8.570;2022-08-19T11:13:41;9.17;;;8.20;;
3311;SDS011;1668;49.648;8.570;2022-08-19T11:16:11;10.23;;;8.27;;
3311;SDS011;1668;49.648;8.570;2022-08-19T11:18:41;8.70;;;7.80;;
3311;SDS011;1668;49.648;8.570;2022-08-19T11:21:14;9.33;;;8.17;;
3311;SDS011;1668;49.648;8.570;2022-08-19T11:23:44;9.43;;;8.53;;
3311;SDS011;1668;49.648;8.570;2022-08-19T11:26:13;10.40;;;8.07;;
3311;SDS011;1668;49.648;8.570;2022-08-19T11:28:40;10.63;;;8.17;;
3311;SDS011;1668;49.648;8.570;2022-08-19T11:31:11;9.00;;;8.07;;
3311;SDS011;1668;49.648;8.570;2022-08-19T11:33:39;9.50;;;8.13;;
3311;SDS011;1668;49.648;8.570;2022-08-19T11:36:06;9.50;;;8.60;;
3311;SDS011;1668;49.648;8.570;2022-08-19T11:38:33;13.00;;;9.67;;
3311;SDS011;1668;49.648;8.570;2022-08-19T11:41:05;9.53;;;8.67;;
3311;SDS011;1668;49.648;8.570;2022-08-19T11:43:34;11.20;;;8.87;;
3311;SDS011;1668;49.648;8.570;2022-08-19T11:46:03;11.37;;;9.10;;
3311;SDS011;1668;49.648;8.570;2022-08-19T11:48:31;10.53;;;9.17;;
3311;SDS011;1668;49.648;8.570;2022-08-19T11:50:59;10.33;;;9.23;;
3311;SDS011;1668;49.648;8.570;2022-08-19T11:53:31;10.43;;;9.00;;
3311;SDS011;1668;49.648;8.570;2022-08-19T11:55:59;9.30;;;7.67;;
3311;SDS011;1668;49.648;8.570;2022-08-19T11:58:27;8.57;;;7.27;;
3311;SDS011;1668;49.648;8.570;2022-08-19T12:00:56;6.83;;;5.90;;
3311;SDS011;1668;49.648;8.570;2022-08-19T12:03:23;8.30;;;7.40;;
3311;SDS011;1668;49.648;8.570;2022-08-19T12:05:50;8.47;;;7.67;;
3311;SDS011;1668;49.648;8.570;2022-08-19T12:08:18;8.47;;;6.30;;
3311;SDS011;1668;49.648;8.570;2022-08-19T12:10:45;9.40;;;6.60;;
3311;SDS011;1668;49.648;8.570;2022-08-19T12:13:12;8.40;;;7.00;;
3311;SDS011;1668;49.648;8.570;2022-08-19T12:15:45;7.13;;;6.43;;
3311;SDS011;1668;49.648;8.570;2022-08-19T12:18:14;7.63;;;6.93;;
3311;SDS011;1668;49.648;8.570;2022-08-19T12:20:41;8.00;;;7.20;;
3311;SDS011;1668;49.648;8.570;2022-08-19T12:23:11;8.97;;;6.80;;
3311;SDS011;1668;49.648;8.570;2022-08-19T12:25:43;7.47;;;6.83;;
3311;SDS011;1668;49.648;8.570;2022-08-19T12:28:15;11.10;;;6.93;;
3311;SDS011;1668;49.648;8.570;2022-08-19T12:30:42;7.97;;;7.00;;
3311;SDS011;1668;49.648;8.570;2022-08-19T12:33:09;7.67;;;7.03;;
3311;SDS011;1668;49.648;8.570;2022-08-19T12:35:40;6.93;;;6.33;;
3311;SDS011;1668;49.648;8.570;2022-08-19T12:38:09;11.63;;;7.20;;
3311;SDS011;1668;49.648;8.570;2022-08-19T12:40:36;7.90;;;7.20;;
3311;SDS011;1668;49.648;8.570;2022-08-19T12:43:04;7.70;;;7.00;;
3311;SDS011;1668;49.648;8.570;2022-08-19T12:45:30;8.77;;;7.13;;
3311;SDS011;1668;49.648;8.570;2022-08-19T12:47:57;7.23;;;6.53;;
3311;SDS011;1668;49.648;8.570;2022-08-19T12:50:24;8.03;;;7.33;;
3311;SDS011;1668;49.648;8.570;2022-08-19T12:52:53;8.40;;;6.10;;
3311;SDS011;1668;49.648;8.570;2022-08-19T12:55:20;8.07;;;6.17;;
3311;SDS011;1668;49.648;8.570;2022-08-19T12:57:47;7.07;;;6.47;;
3311;SDS011;1668;49.648;8.570;2022-08-19T13:00:15;6.67;;;5.97;;
3311;SDS011;1668;49.648;8.570;2022-08-19T13:02:46;7.00;;;5.83;;
3311;SDS011;1668;49.648;8.570;2022-08-19T13:05:16;6.37;;;5.87;;
3311;SDS011;1668;49.648;8.570;2022-08-19T13:07:46;6.17;;;5.67;;
3311;SDS011;1668;49.648;8.570;2022-08-19T13:10:15;6.70;;;6.00;;
3311;SDS011;1668;49.648;8.570;2022-08-19T13:12:45;6.40;;;5.80;;
3311;SDS011;1668;49.648;8.570;2022-08-19T13:15:14;7.00;;;5.70;;
3311;SDS011;1668;49.648;8.570;2022-08-19T13:17:45;7.30;;;5.20;;
3311;SDS011;1668;49.648;8.570;2022-08-19T13:20:14;6.60;;;6.00;;
3311;SDS011;1668;49.648;8.570;2022-08-19T13:22:44;6.07;;;5.43;;
3311;SDS011;1668;49.648;8.570;2022-08-19T13:25:12;5.53;;;5.03;;
3311;SDS011;1668;49.648;8.570;2022-08-19T13:27:42;7.17;;;6.10;;
3311;SDS011;1668;49.648;8.570;2022-08-19T13:30:11;6.10;;;5.57;;
3311;SDS011;1668;49.648;8.570;2022-08-19T13:32:56;5.80;;;5.30;;
3311;SDS011;1668;49.648;8.570;2022-08-19T13:35:45;6.20;;;5.60;;
3311;SDS011;1668;49.648;8.570;2022-08-19T13:38:14;6.27;;;5.67;;
3311;SDS011;1668;49.648;8.570;2022-08-19T13:40:42;6.17;;;5.60;;
3311;SDS011;1668;49.648;8.570;2022-08-19T13:43:10;6.40;;;5.80;;
3311;SDS011;1668;49.648;8.570;2022-08-19T13:45:38;6.80;;;6.17;;
3311;SDS011;1668;49.648;8.570;2022-08-19T13:48:06;6.30;;;5.70;;
3311;SDS011;1668;49.648;8.570;2022-08-19T13:50:35;8.43;;;5.70;;
3311;SDS011;1668;49.648;8.570;2022-08-19T13:53:05;6.30;;;5.37;;
3311;SDS011;1668;49.648;8.570;2022-08-19T13:55:32;6.47;;;5.87;;
3311;SDS011;1668;49.648;8.570;2022-08-19T13:58:01;8.47;;;5.17;;
3311;SDS011;1668;49.648;8.570;2022-08-19T14:00:30;6.17;;;5.27;;
3311;SDS011;1668;49.648;8.570;2022-08-19T14:02:59;5.50;;;5.00;;
3311;SDS011;1668;49.648;8.570;2022-08-19T14:05:27;5.80;;;5.27;;
3311;SDS011;1668;49.648;8.570;2022-08-19T14:07:55;6.07;;;5.47;;
3311;SDS011;1668;49.648;8.570;2022-08-19T14:10:22;6.33;;;5.63;;
3311;SDS011;1668;49.648;8.570;2022-08-19T14:12:53;6.93;;;6.20;;
3311;SDS011;1668;49.648;8.570;2022-08-19T14:15:23;6.37;;;5.83;;
3311;SDS011;1668;49.648;8.570;2022-08-19T14:17:52;6.07;;;5.57;;
3311;SDS011;1668;49.648;8.570;2022-08-19T14:20:20;6.93;;;5.73;;
3311;SDS011;1668;49.648;8.570;2022-08-19T14:22:47;6.17;;;5.60;;
3311;SDS011;1668;49.648;8.570;2022-08-19T14:25:15;6.43;;;5.83;;
3311;SDS011;1668;49.648;8.570;2022-08-19T14:27:44;9.93;;;5.67;;
3311;SDS011;1668;49.648;8.570;2022-08-19T14:30:13;6.23;;;5.73;;
3311;SDS011;1668;49.648;8.570;2022-08-19T14:32:41;5.83;;;5.33;;
3311;SDS011;1668;49.648;8.570;2022-08-19T14:35:11;7.03;;;4.90;;
3311;SDS011;1668;49.648;8.570;2022-08-19T14:37:39;6.00;;;5.00;;
3311;SDS011;1668;49.648;8.570;2022-08-19T14:40:07;5.77;;;5.27;;
3311;SDS011;1668;49.648;8.570;2022-08-19T14:42:35;5.87;;;5.27;;
3311;SDS011;1668;49.648;8.570;2022-08-19T14:45:02;7.07;;;5.13;;
3311;SDS011;1668;49.648;8.570;2022-08-19T14:47:31;5.63;;;5.13;;
3311;SDS011;1668;49.648;8.570;2022-08-19T14:49:58;5.50;;;5.00;;
3311;SDS011;1668;49.648;8.570;2022-08-19T14:52:27;5.57;;;5.07;;
3311;SDS011;1668;49.648;8.570;2022-08-19T14:54:54;5.13;;;4.63;;
3311;SDS011;1668;49.648;8.570;2022-08-19T14:57:20;5.13;;;4.63;;
3311;SDS011;1668;49.648;8.570;2022-08-19T14:59:47;4.23;;;3.83;;
3311;SDS011;1668;49.648;8.570;2022-08-19T15:02:14;4.50;;;4.10;;
3311;SDS011;1668;49.648;8.570;2022-08-19T15:04:42;4.67;;;4.27;;
3311;SDS011;1668;49.648;8.570;2022-08-19T15:07:10;5.07;;;4.57;;
3311;SDS011;1668;49.648;8.570;2022-08-19T15:09:38;4.73;;;4.33;;
3311;SDS011;1668;49.648;8.570;2022-08-19T15:12:05;5.90;;;5.33;;